Ioannis G — 9HA3371 — position and weather

sailwx.info

Track history (hours):
 
Tides and Currents Weather Stations Pressure Air Temp Water Temp Dewpoint Dewpoint Depression Visibility Wind Speed Wind Dir Waves Ship Positions

Ioannis G

Last reported at 2017-Dec-01 10:23 UTC. Time now 2017-Dec-17 23:19 UTC.
Position N 01°20' E 104°05'.
Warning: this ship's position is 16 days out of date.

Length 189 m; draft 7.5 m.

Type: Cargo ship. MMSI: 229486000.

Date/timePositionNaut miles runAvg speedWind from/ knotsBaromVisibWave heightAir tempDewpointWater temp
2017-Dec-01 10:23N 01°20' E 104°05'13 9.1
2017-Dec-01 08:57N 01°26' E 103°53'2 0.1
2017-Nov-29 22:17N 01°28' E 103°52'2 5.7
2017-Nov-29 22:00N 01°26' E 103°53'4 8.0
2017-Nov-29 21:29N 01°24' E 103°56'6 8.4
2017-Nov-29 20:48N 01°22' E 104°02'310.4
2017-Nov-29 20:30N 01°20' E 104°04'3 5.3
2017-Nov-29 19:52N 01°18' E 104°06'1 3.3
2017-Nov-29 19:27N 01°17' E 104°05'3 5.8
2017-Nov-29 19:00N 01°17' E 104°03'713.3
2017-Nov-29 18:30N 01°15' E 103°56'713.9
2017-Nov-29 18:00N 01°12' E 103°50'612.2
2017-Nov-29 17:30N 01°16' E 103°45'3 5.2
2017-Nov-29 16:57N 01°18' E 103°43'0 0.4
2017-Nov-29 16:30N 01°18' E 103°43'0 0.0
2017-Nov-29 16:00N 01°18' E 103°43'0 0.0
2017-Nov-29 15:30N 01°18' E 103°43'0 0.0
2017-Nov-29 15:00N 01°18' E 103°43'0 0.0
2017-Nov-29 14:31N 01°18' E 103°43'0 0.0
2017-Nov-29 14:00N 01°18' E 103°43'0 0.0
2017-Nov-29 13:30N 01°18' E 103°43'0 0.0
2017-Nov-29 13:00N 01°18' E 103°43'0 0.0
2017-Nov-29 12:31N 01°18' E 103°43'0 0.0
2017-Nov-29 12:01N 01°18' E 103°43'0 0.0
2017-Nov-29 11:30N 01°18' E 103°43'0 0.0
2017-Nov-29 11:01N 01°18' E 103°43'0 0.0
2017-Nov-29 10:30N 01°18' E 103°43'0 0.0
2017-Nov-29 10:00N 01°18' E 103°43'0 0.0
2017-Nov-29 09:31N 01°18' E 103°43'0 0.0
2017-Nov-29 09:00N 01°18' E 103°43'0 0.0
2017-Nov-29 08:31N 01°18' E 103°43'0 0.0
2017-Nov-29 08:00N 01°18' E 103°43'0 0.0
2017-Nov-29 07:30N 01°18' E 103°43'0 0.0
2017-Nov-29 07:01N 01°18' E 103°43'0 0.0
2017-Nov-29 06:31N 01°18' E 103°43'0 0.0
2017-Nov-29 06:01N 01°18' E 103°43'0 0.0
2017-Nov-29 05:31N 01°18' E 103°43'0 0.0
2017-Nov-29 05:01N 01°18' E 103°43'0 0.0
2017-Nov-29 04:31N 01°18' E 103°43'0 0.0
2017-Nov-29 04:00N 01°18' E 103°43'0 0.0
2017-Nov-29 03:30N 01°18' E 103°43'0 0.0
2017-Nov-29 03:00N 01°18' E 103°43'0 0.0
2017-Nov-29 02:30N 01°18' E 103°43'0 0.0
2017-Nov-29 02:01N 01°18' E 103°43'0 0.0
2017-Nov-29 01:30N 01°18' E 103°43'0 0.0
2017-Nov-29 01:00N 01°18' E 103°43'0 0.0
2017-Nov-29 00:31N 01°18' E 103°43'0 0.0
2017-Nov-29 00:00N 01°18' E 103°43'0 0.0
2017-Nov-28 23:30N 01°18' E 103°43'0 0.0
2017-Nov-28 23:00N 01°18' E 103°43'0 0.0
2017-Nov-28 22:31N 01°18' E 103°43'0 0.0
2017-Nov-28 22:00N 01°18' E 103°43'0 0.0
2017-Nov-28 21:30N 01°18' E 103°43'0 0.0
2017-Nov-28 21:00N 01°18' E 103°43'0 0.0
2017-Nov-28 20:30N 01°18' E 103°43'0 0.0
2017-Nov-28 20:01N 01°18' E 103°43'0 0.0
2017-Nov-28 19:30N 01°18' E 103°43'0 0.0
2017-Nov-28 19:00N 01°18' E 103°43'0 0.0
2017-Nov-28 18:31N 01°18' E 103°43'0 0.0
2017-Nov-28 18:00N 01°18' E 103°43'0 0.0
2017-Nov-28 17:30N 01°18' E 103°43'0 0.0
2017-Nov-28 17:01N 01°18' E 103°43'0 0.0
2017-Nov-28 16:31N 01°18' E 103°43'0 0.0
2017-Nov-28 16:01N 01°18' E 103°43'0 0.0
2017-Nov-28 15:01N 01°18' E 103°43'0 0.0
2017-Nov-28 14:30N 01°18' E 103°43'0 0.0
2017-Nov-28 14:01N 01°18' E 103°43'0 0.0
2017-Nov-28 13:31N 01°18' E 103°43'0 0.0
2017-Nov-28 13:01N 01°18' E 103°43'0 0.0
2017-Nov-28 12:30N 01°18' E 103°43'0 0.0
2017-Nov-28 12:00N 01°18' E 103°43'0 0.0
2017-Nov-28 11:30N 01°18' E 103°43'0 0.0
2017-Nov-28 11:00N 01°18' E 103°43'0 0.0
2017-Nov-28 10:30N 01°18' E 103°43'0 0.0
2017-Nov-28 10:00N 01°18' E 103°43'0 0.0
2017-Nov-28 09:30N 01°18' E 103°43'0 0.0
2017-Nov-28 09:00N 01°18' E 103°43'0 0.0
2017-Nov-28 08:31N 01°18' E 103°43'0 0.0
2017-Nov-28 08:01N 01°18' E 103°43'0 0.0
2017-Nov-28 07:30N 01°18' E 103°43'0 0.0
2017-Nov-28 07:01N 01°18' E 103°43'0 0.0
2017-Nov-28 06:30N 01°18' E 103°43'0 0.0
2017-Nov-28 06:00N 01°18' E 103°43'0 0.0
2017-Nov-28 05:31N 01°18' E 103°43'0 0.0
2017-Nov-28 04:31N 01°18' E 103°43'0 0.0
2017-Nov-28 04:00N 01°18' E 103°43'0 0.0
2017-Nov-28 03:31N 01°18' E 103°43'0 0.0
2017-Nov-28 03:00N 01°18' E 103°43'0 0.0
2017-Nov-28 02:31N 01°18' E 103°43'0 0.0
2017-Nov-28 02:00N 01°18' E 103°43'0 0.0
2017-Nov-28 01:31N 01°18' E 103°43'0 0.0
2017-Nov-28 01:00N 01°18' E 103°43'0 0.0
2017-Nov-28 00:30N 01°18' E 103°43'0 0.0
2017-Nov-28 00:00N 01°18' E 103°43'0 0.0
2017-Nov-27 23:31N 01°18' E 103°43'0 0.0
2017-Nov-27 23:00N 01°18' E 103°43'0 0.0
2017-Nov-27 22:30N 01°18' E 103°43'0 0.0
2017-Nov-27 22:00N 01°18' E 103°43'0 0.0
2017-Nov-27 21:31N 01°18' E 103°43'0 0.0
2017-Nov-27 21:00N 01°18' E 103°43'0 0.0
2017-Nov-27 20:31N 01°18' E 103°43'0 0.0
2017-Nov-27 20:01N 01°18' E 103°43'0 0.0
2017-Nov-27 19:30N 01°18' E 103°43'0 0.0
2017-Nov-27 19:00N 01°18' E 103°43'0 0.0
2017-Nov-27 18:30N 01°18' E 103°43'0 0.0
2017-Nov-27 18:00N 01°18' E 103°43'0 0.0
2017-Nov-27 17:30N 01°18' E 103°43'0 0.0
2017-Nov-27 17:00N 01°18' E 103°43'0 0.0
2017-Nov-27 16:30N 01°18' E 103°43'0 0.0
2017-Nov-27 16:01N 01°18' E 103°43'0 0.0
2017-Nov-27 15:30N 01°18' E 103°43'0 0.0
2017-Nov-27 15:00N 01°18' E 103°43'0 0.0
2017-Nov-27 14:30N 01°18' E 103°43'0 0.0
2017-Nov-27 14:01N 01°18' E 103°43'0 0.0
2017-Nov-27 13:31N 01°18' E 103°43'0 0.0
2017-Nov-27 13:01N 01°18' E 103°43'0 0.0
2017-Nov-27 12:30N 01°18' E 103°43'0 0.0
2017-Nov-27 12:00N 01°18' E 103°43'0 0.0
2017-Nov-27 11:31N 01°18' E 103°43'0 0.0
2017-Nov-27 11:00N 01°18' E 103°43'0 0.0
2017-Nov-27 10:30N 01°18' E 103°43'0 0.0
2017-Nov-27 10:01N 01°18' E 103°43'0 0.0
2017-Nov-27 09:30N 01°18' E 103°43'0 0.0
2017-Nov-27 09:01N 01°18' E 103°43'0 0.0
2017-Nov-27 08:31N 01°18' E 103°43'0 0.0
2017-Nov-27 08:01N 01°18' E 103°43'0 0.0
2017-Nov-27 07:31N 01°18' E 103°43'0 0.0
2017-Nov-27 07:01N 01°18' E 103°43'0 0.0
2017-Nov-27 06:31N 01°18' E 103°43'0 0.0
2017-Nov-27 06:01N 01°18' E 103°43'0 0.0
2017-Nov-27 05:30N 01°18' E 103°43'0 0.0
2017-Nov-27 05:00N 01°18' E 103°43'0 0.0
2017-Nov-27 04:30N 01°18' E 103°43'0 0.0
2017-Nov-27 04:00N 01°18' E 103°43'0 0.0
2017-Nov-27 03:30N 01°18' E 103°43'0 0.0
2017-Nov-27 03:01N 01°18' E 103°43'0 0.0
2017-Nov-27 02:30N 01°18' E 103°43'0 0.0
2017-Nov-27 02:01N 01°18' E 103°43'0 0.0
2017-Nov-27 01:30N 01°18' E 103°43'0 0.0
2017-Nov-27 01:00N 01°18' E 103°43'0 0.0
2017-Nov-27 00:30N 01°18' E 103°43'0 0.0
2017-Nov-27 00:01N 01°18' E 103°43'0 0.0
2017-Nov-26 23:31N 01°18' E 103°43'0 0.0
2017-Nov-26 23:00N 01°18' E 103°43'0 0.0
2017-Nov-26 22:30N 01°18' E 103°43'0 0.5
2017-Nov-26 22:00N 01°18' E 103°43'2 4.2
2017-Nov-26 21:31N 01°17' E 103°45'3 5.2
2017-Nov-26 21:01N 01°14' E 103°43'510.1
2017-Nov-26 20:30N 01°12' E 103°39'3 6.5
2017-Nov-26 19:58N 01°12' E 103°35'2 5.2
2017-Nov-26 19:30N 01°11' E 103°33'4 8.0
2017-Nov-26 19:00N 01°10' E 103°29'4 7.2
2017-Nov-26 18:27N 01°11' E 103°26'  
Track history (hours):
 
Tides and Currents Weather Stations Pressure Air Temp Water Temp Dewpoint Dewpoint Depression Visibility Wind Speed Wind Dir Waves Ship Positions

Ioannis G

Last reported at 2017-Dec-01 10:23 UTC. Time now 2017-Dec-17 23:19 UTC.
Position N 01°20' E 104°05'.
Warning: this ship's position is 16 days out of date.

Length 189 m; draft 7.5 m.

Type: Cargo ship. MMSI: 229486000.

Date/timePositionNaut miles runAvg speedWind from/ knotsBaromVisibWave heightAir tempDewpointWater temp
2017-Dec-01 10:23N 01°20' E 104°05'13 9.1
2017-Dec-01 08:57N 01°26' E 103°53'2 0.1
2017-Nov-29 22:17N 01°28' E 103°52'2 5.7
2017-Nov-29 22:00N 01°26' E 103°53'4 8.0
2017-Nov-29 21:29N 01°24' E 103°56'6 8.4
2017-Nov-29 20:48N 01°22' E 104°02'310.4
2017-Nov-29 20:30N 01°20' E 104°04'3 5.3
2017-Nov-29 19:52N 01°18' E 104°06'1 3.3
2017-Nov-29 19:27N 01°17' E 104°05'3 5.8
2017-Nov-29 19:00N 01°17' E 104°03'713.3
2017-Nov-29 18:30N 01°15' E 103°56'713.9
2017-Nov-29 18:00N 01°12' E 103°50'612.2
2017-Nov-29 17:30N 01°16' E 103°45'3 5.2
2017-Nov-29 16:57N 01°18' E 103°43'0 0.4
2017-Nov-29 16:30N 01°18' E 103°43'0 0.0
2017-Nov-29 16:00N 01°18' E 103°43'0 0.0
2017-Nov-29 15:30N 01°18' E 103°43'0 0.0
2017-Nov-29 15:00N 01°18' E 103°43'0 0.0
2017-Nov-29 14:31N 01°18' E 103°43'0 0.0
2017-Nov-29 14:00N 01°18' E 103°43'0 0.0
2017-Nov-29 13:30N 01°18' E 103°43'0 0.0
2017-Nov-29 13:00N 01°18' E 103°43'0 0.0
2017-Nov-29 12:31N 01°18' E 103°43'0 0.0
2017-Nov-29 12:01N 01°18' E 103°43'0 0.0
2017-Nov-29 11:30N 01°18' E 103°43'0 0.0
2017-Nov-29 11:01N 01°18' E 103°43'0 0.0
2017-Nov-29 10:30N 01°18' E 103°43'0 0.0
2017-Nov-29 10:00N 01°18' E 103°43'0 0.0
2017-Nov-29 09:31N 01°18' E 103°43'0 0.0
2017-Nov-29 09:00N 01°18' E 103°43'0 0.0
2017-Nov-29 08:31N 01°18' E 103°43'0 0.0
2017-Nov-29 08:00N 01°18' E 103°43'0 0.0
2017-Nov-29 07:30N 01°18' E 103°43'0 0.0
2017-Nov-29 07:01N 01°18' E 103°43'0 0.0
2017-Nov-29 06:31N 01°18' E 103°43'0 0.0
2017-Nov-29 06:01N 01°18' E 103°43'0 0.0
2017-Nov-29 05:31N 01°18' E 103°43'0 0.0
2017-Nov-29 05:01N 01°18' E 103°43'0 0.0
2017-Nov-29 04:31N 01°18' E 103°43'0 0.0
2017-Nov-29 04:00N 01°18' E 103°43'0 0.0
2017-Nov-29 03:30N 01°18' E 103°43'0 0.0
2017-Nov-29 03:00N 01°18' E 103°43'0 0.0
2017-Nov-29 02:30N 01°18' E 103°43'0 0.0
2017-Nov-29 02:01N 01°18' E 103°43'0 0.0
2017-Nov-29 01:30N 01°18' E 103°43'0 0.0
2017-Nov-29 01:00N 01°18' E 103°43'0 0.0
2017-Nov-29 00:31N 01°18' E 103°43'0 0.0
2017-Nov-29 00:00N 01°18' E 103°43'0 0.0
2017-Nov-28 23:30N 01°18' E 103°43'0 0.0
2017-Nov-28 23:00N 01°18' E 103°43'0 0.0
2017-Nov-28 22:31N 01°18' E 103°43'0 0.0
2017-Nov-28 22:00N 01°18' E 103°43'0 0.0
2017-Nov-28 21:30N 01°18' E 103°43'0 0.0
2017-Nov-28 21:00N 01°18' E 103°43'0 0.0
2017-Nov-28 20:30N 01°18' E 103°43'0 0.0
2017-Nov-28 20:01N 01°18' E 103°43'0 0.0
2017-Nov-28 19:30N 01°18' E 103°43'0 0.0
2017-Nov-28 19:00N 01°18' E 103°43'0 0.0
2017-Nov-28 18:31N 01°18' E 103°43'0 0.0
2017-Nov-28 18:00N 01°18' E 103°43'0 0.0
2017-Nov-28 17:30N 01°18' E 103°43'0 0.0
2017-Nov-28 17:01N 01°18' E 103°43'0 0.0
2017-Nov-28 16:31N 01°18' E 103°43'0 0.0
2017-Nov-28 16:01N 01°18' E 103°43'0 0.0
2017-Nov-28 15:01N 01°18' E 103°43'0 0.0
2017-Nov-28 14:30N 01°18' E 103°43'0 0.0
2017-Nov-28 14:01N 01°18' E 103°43'0 0.0
2017-Nov-28 13:31N 01°18' E 103°43'0 0.0
2017-Nov-28 13:01N 01°18' E 103°43'0 0.0
2017-Nov-28 12:30N 01°18' E 103°43'0 0.0
2017-Nov-28 12:00N 01°18' E 103°43'0 0.0
2017-Nov-28 11:30N 01°18' E 103°43'0 0.0
2017-Nov-28 11:00N 01°18' E 103°43'0 0.0
2017-Nov-28 10:30N 01°18' E 103°43'0 0.0
2017-Nov-28 10:00N 01°18' E 103°43'0 0.0
2017-Nov-28 09:30N 01°18' E 103°43'0 0.0
2017-Nov-28 09:00N 01°18' E 103°43'0 0.0
2017-Nov-28 08:31N 01°18' E 103°43'0 0.0
2017-Nov-28 08:01N 01°18' E 103°43'0 0.0
2017-Nov-28 07:30N 01°18' E 103°43'0 0.0
2017-Nov-28 07:01N 01°18' E 103°43'0 0.0
2017-Nov-28 06:30N 01°18' E 103°43'0 0.0
2017-Nov-28 06:00N 01°18' E 103°43'0 0.0
2017-Nov-28 05:31N 01°18' E 103°43'0 0.0
2017-Nov-28 04:31N 01°18' E 103°43'0 0.0
2017-Nov-28 04:00N 01°18' E 103°43'0 0.0
2017-Nov-28 03:31N 01°18' E 103°43'0 0.0
2017-Nov-28 03:00N 01°18' E 103°43'0 0.0
2017-Nov-28 02:31N 01°18' E 103°43'0 0.0
2017-Nov-28 02:00N 01°18' E 103°43'0 0.0
2017-Nov-28 01:31N 01°18' E 103°43'0 0.0
2017-Nov-28 01:00N 01°18' E 103°43'0 0.0
2017-Nov-28 00:30N 01°18' E 103°43'0 0.0
2017-Nov-28 00:00N 01°18' E 103°43'0 0.0
2017-Nov-27 23:31N 01°18' E 103°43'0 0.0
2017-Nov-27 23:00N 01°18' E 103°43'0 0.0
2017-Nov-27 22:30N 01°18' E 103°43'0 0.0
2017-Nov-27 22:00N 01°18' E 103°43'0 0.0
2017-Nov-27 21:31N 01°18' E 103°43'0 0.0
2017-Nov-27 21:00N 01°18' E 103°43'0 0.0
2017-Nov-27 20:31N 01°18' E 103°43'0 0.0
2017-Nov-27 20:01N 01°18' E 103°43'0 0.0
2017-Nov-27 19:30N 01°18' E 103°43'0 0.0
2017-Nov-27 19:00N 01°18' E 103°43'0 0.0
2017-Nov-27 18:30N 01°18' E 103°43'0 0.0
2017-Nov-27 18:00N 01°18' E 103°43'0 0.0
2017-Nov-27 17:30N 01°18' E 103°43'0 0.0
2017-Nov-27 17:00N 01°18' E 103°43'0 0.0
2017-Nov-27 16:30N 01°18' E 103°43'0 0.0
2017-Nov-27 16:01N 01°18' E 103°43'0 0.0
2017-Nov-27 15:30N 01°18' E 103°43'0 0.0
2017-Nov-27 15:00N 01°18' E 103°43'0 0.0
2017-Nov-27 14:30N 01°18' E 103°43'0 0.0
2017-Nov-27 14:01N 01°18' E 103°43'0 0.0
2017-Nov-27 13:31N 01°18' E 103°43'0 0.0
2017-Nov-27 13:01N 01°18' E 103°43'0 0.0
2017-Nov-27 12:30N 01°18' E 103°43'0 0.0
2017-Nov-27 12:00N 01°18' E 103°43'0 0.0
2017-Nov-27 11:31N 01°18' E 103°43'0 0.0
2017-Nov-27 11:00N 01°18' E 103°43'0 0.0
2017-Nov-27 10:30N 01°18' E 103°43'0 0.0
2017-Nov-27 10:01N 01°18' E 103°43'0 0.0
2017-Nov-27 09:30N 01°18' E 103°43'0 0.0
2017-Nov-27 09:01N 01°18' E 103°43'0 0.0
2017-Nov-27 08:31N 01°18' E 103°43'0 0.0
2017-Nov-27 08:01N 01°18' E 103°43'0 0.0
2017-Nov-27 07:31N 01°18' E 103°43'0 0.0
2017-Nov-27 07:01N 01°18' E 103°43'0 0.0
2017-Nov-27 06:31N 01°18' E 103°43'0 0.0
2017-Nov-27 06:01N 01°18' E 103°43'0 0.0
2017-Nov-27 05:30N 01°18' E 103°43'0 0.0
2017-Nov-27 05:00N 01°18' E 103°43'0 0.0
2017-Nov-27 04:30N 01°18' E 103°43'0 0.0
2017-Nov-27 04:00N 01°18' E 103°43'0 0.0
2017-Nov-27 03:30N 01°18' E 103°43'0 0.0
2017-Nov-27 03:01N 01°18' E 103°43'0 0.0
2017-Nov-27 02:30N 01°18' E 103°43'0 0.0
2017-Nov-27 02:01N 01°18' E 103°43'0 0.0
2017-Nov-27 01:30N 01°18' E 103°43'0 0.0
2017-Nov-27 01:00N 01°18' E 103°43'0 0.0
2017-Nov-27 00:30N 01°18' E 103°43'0 0.0
2017-Nov-27 00:01N 01°18' E 103°43'0 0.0
2017-Nov-26 23:31N 01°18' E 103°43'0 0.0
2017-Nov-26 23:00N 01°18' E 103°43'0 0.0
2017-Nov-26 22:30N 01°18' E 103°43'0 0.5
2017-Nov-26 22:00N 01°18' E 103°43'2 4.2
2017-Nov-26 21:31N 01°17' E 103°45'3 5.2
2017-Nov-26 21:01N 01°14' E 103°43'510.1
2017-Nov-26 20:30N 01°12' E 103°39'3 6.5
2017-Nov-26 19:58N 01°12' E 103°35'2 5.2
2017-Nov-26 19:30N 01°11' E 103°33'4 8.0
2017-Nov-26 19:00N 01°10' E 103°29'4 7.2
2017-Nov-26 18:27N 01°11' E 103°26'  

Dump ship's entire track history